createdAt,value
2019-05-02T00:00:45.333Z,15.35
2019-05-02T00:03:15.478Z,15.26
2019-05-02T00:05:45.371Z,15.37
2019-05-02T00:08:15.151Z,15.33
2019-05-02T00:10:45.051Z,15.24
2019-05-02T00:13:14.485Z,15.23
2019-05-02T00:15:45.572Z,15.22
2019-05-02T00:18:15.579Z,15.17
2019-05-02T00:20:44.965Z,15.01
2019-05-02T00:23:14.488Z,15.01
2019-05-02T00:25:47.283Z,14.89
2019-05-02T00:28:14.943Z,14.96
2019-05-02T00:30:44.538Z,14.85
2019-05-02T00:33:13.981Z,14.87
2019-05-02T00:35:46.082Z,14.85
2019-05-02T00:38:14.591Z,14.83
2019-05-02T00:40:46.310Z,14.73
2019-05-02T00:43:15.048Z,14.70
2019-05-02T00:45:44.480Z,14.72
2019-05-02T00:48:23.132Z,14.77
2019-05-02T00:50:52.465Z,14.70
2019-05-02T00:53:22.012Z,14.59
2019-05-02T00:55:51.386Z,14.57
2019-05-02T00:58:20.791Z,14.58
2019-05-02T01:01:09.137Z,14.55
2019-05-02T01:03:40.281Z,14.52
2019-05-02T01:06:13.981Z,14.56
2019-05-02T01:08:40.918Z,14.50
2019-05-02T01:11:10.354Z,14.45
2019-05-02T01:13:39.791Z,14.31
2019-05-02T01:16:09.258Z,14.30
2019-05-02T01:18:41.409Z,14.27
2019-05-02T01:21:10.395Z,14.28
2019-05-02T01:23:39.878Z,14.23
2019-05-02T01:26:10.945Z,14.18
2019-05-02T01:28:54.114Z,14.25
2019-05-02T01:31:30.468Z,14.25
2019-05-02T01:34:21.975Z,14.21
2019-05-02T01:37:00.130Z,14.20
2019-05-02T01:39:29.591Z,14.18
2019-05-02T01:41:59.888Z,14.21
2019-05-02T01:44:31.131Z,14.09
2019-05-02T01:47:01.401Z,14.04
2019-05-02T01:49:30.793Z,13.94
2019-05-02T01:52:00.201Z,13.84
2019-05-02T01:54:29.680Z,13.89
2019-05-02T01:56:59.070Z,13.78
2019-05-02T01:59:29.023Z,13.75
2019-05-02T02:01:59.627Z,13.70
2019-05-02T02:04:29.043Z,13.68
2019-05-02T02:06:58.419Z,13.76
2019-05-02T02:09:27.955Z,13.77
2019-05-02T02:11:57.323Z,13.70
2019-05-02T02:14:26.695Z,13.75
2019-05-02T02:16:56.175Z,13.81
2019-05-02T02:19:34.666Z,13.76
2019-05-02T02:22:09.039Z,13.44
2019-05-02T02:24:42.022Z,13.21
2019-05-02T02:27:11.459Z,13.28
2019-05-02T02:29:43.937Z,13.15
2019-05-02T02:32:12.004Z,13.26
2019-05-02T02:34:41.502Z,13.41
2019-05-02T02:37:14.724Z,13.51
2019-05-02T02:39:41.982Z,13.42
2019-05-02T02:42:11.355Z,13.18
2019-05-02T02:44:56.185Z,13.09
2019-05-02T02:47:25.620Z,13.19
2019-05-02T02:50:02.691Z,13.25
2019-05-02T02:52:26.156Z,13.15
2019-05-02T02:54:55.515Z,13.04
2019-05-02T02:57:28.229Z,13.11
2019-05-02T03:00:06.114Z,13.08
2019-05-02T03:02:27.229Z,13.11
2019-05-02T03:04:56.697Z,13.00
2019-05-02T03:07:28.773Z,13.10
2019-05-02T03:09:59.782Z,13.10
2019-05-02T03:12:59.341Z,12.96
2019-05-02T03:15:30.905Z,13.00
2019-05-02T03:18:02.091Z,13.04
2019-05-02T03:20:40.138Z,13.02
2019-05-02T03:23:02.843Z,12.98
2019-05-02T03:25:50.084Z,12.99
2019-05-02T03:28:04.096Z,12.96
2019-05-02T03:30:37.172Z,12.90
2019-05-02T03:33:10.971Z,12.90
2019-05-02T03:35:42.897Z,12.62
2019-05-02T03:38:07.354Z,12.66
2019-05-02T03:40:38.870Z,12.30
2019-05-02T03:43:08.453Z,12.58
2019-05-02T03:45:40.307Z,12.63
2019-05-02T03:48:09.111Z,12.12
2019-05-02T03:50:38.848Z,12.53
2019-05-02T03:53:08.339Z,12.73
2019-05-02T03:55:37.764Z,12.56
2019-05-02T03:58:13.840Z,12.62
2019-05-02T04:00:38.561Z,12.00
2019-05-02T04:03:08.478Z,12.49
2019-05-02T04:05:40.336Z,12.58
2019-05-02T04:08:20.146Z,12.47
2019-05-02T04:11:18.080Z,12.19
2019-05-02T04:13:47.818Z,12.30
2019-05-02T04:16:17.734Z,11.77
2019-05-02T04:18:54.453Z,11.96
2019-05-02T04:21:24.320Z,11.51
2019-05-02T04:23:50.217Z,11.96
2019-05-02T04:26:19.945Z,11.69
2019-05-02T04:28:51.554Z,12.14
2019-05-02T04:31:24.815Z,11.97
2019-05-02T04:33:52.112Z,12.13
2019-05-02T04:36:21.579Z,12.31
2019-05-02T04:38:52.471Z,12.11
2019-05-02T04:41:28.554Z,11.85
2019-05-02T04:43:57.353Z,11.71
2019-05-02T04:46:28.050Z,11.64
2019-05-02T04:48:58.758Z,11.39
2019-05-02T04:51:30.887Z,11.84
2019-05-02T04:53:58.947Z,11.56
2019-05-02T04:56:28.540Z,11.61
2019-05-02T04:59:01.401Z,11.34
2019-05-02T05:01:33.070Z,11.48
2019-05-02T05:04:03.026Z,11.68
2019-05-02T05:06:31.546Z,11.94
2019-05-02T05:09:03.985Z,11.28
2019-05-02T05:11:32.291Z,11.76
2019-05-02T05:14:01.761Z,11.11
2019-05-02T05:16:31.339Z,10.97
2019-05-02T05:19:00.814Z,11.23
2019-05-02T05:21:30.314Z,11.20
2019-05-02T05:24:18.788Z,11.92
2019-05-02T05:26:51.407Z,11.68
2019-05-02T05:29:23.200Z,11.41
2019-05-02T05:31:55.029Z,11.69
2019-05-02T05:34:28.573Z,11.23
2019-05-02T05:36:54.527Z,11.28
2019-05-02T05:39:24.118Z,11.52
2019-05-02T05:41:53.683Z,11.32
2019-05-02T05:44:27.904Z,11.95
2019-05-02T05:46:54.419Z,11.93
2019-05-02T05:49:23.980Z,12.22
2019-05-02T05:51:54.442Z,12.60
2019-05-02T05:54:24.858Z,12.01
2019-05-02T05:56:54.420Z,12.14
2019-05-02T05:59:28.320Z,12.77
2019-05-02T06:01:55.190Z,12.11
2019-05-02T06:04:30.149Z,12.47
2019-05-02T06:06:59.579Z,12.68
2019-05-02T06:09:31.253Z,12.81
2019-05-02T06:11:58.122Z,12.28
2019-05-02T06:14:27.668Z,12.34
2019-05-02T06:16:57.179Z,12.21
2019-05-02T06:19:26.677Z,12.33
2019-05-02T06:21:56.294Z,12.57
2019-05-02T06:24:25.821Z,12.49
2019-05-02T06:26:55.291Z,12.76
2019-05-02T06:29:24.795Z,12.86
2019-05-02T06:31:54.362Z,12.69
2019-05-02T06:34:23.936Z,12.97
2019-05-02T06:36:53.529Z,13.13
2019-05-02T06:39:27.092Z,13.15
2019-05-02T06:41:57.416Z,13.10
2019-05-02T06:44:25.628Z,13.21
2019-05-02T06:46:59.257Z,13.39
2019-05-02T06:49:26.453Z,13.53
2019-05-02T06:51:57.558Z,13.37
2019-05-02T06:54:27.192Z,13.52
2019-05-02T06:56:56.773Z,13.51
2019-05-02T06:59:26.297Z,13.49
2019-05-02T07:01:57.356Z,13.51
2019-05-02T07:04:27.260Z,13.55
2019-05-02T07:06:59.017Z,13.52
2019-05-02T07:09:39.938Z,13.46
2019-05-02T07:12:01.514Z,13.80
2019-05-02T07:14:30.657Z,13.90
2019-05-02T07:17:18.332Z,13.76
2019-05-02T07:19:50.910Z,13.83
2019-05-02T07:22:20.588Z,13.82
2019-05-02T07:24:50.246Z,14.08
2019-05-02T07:27:19.822Z,14.13
2019-05-02T07:29:52.189Z,14.05
2019-05-02T07:32:24.797Z,14.06
2019-05-02T07:34:51.833Z,14.20
2019-05-02T07:37:21.793Z,14.18
2019-05-02T07:39:51.335Z,14.29
2019-05-02T07:42:23.007Z,14.40
2019-05-02T07:44:52.687Z,14.56
2019-05-02T07:47:22.244Z,14.62
2019-05-02T07:49:51.920Z,14.70
2019-05-02T07:52:21.470Z,14.85
2019-05-02T07:54:51.096Z,14.86
2019-05-02T07:57:25.369Z,14.88
2019-05-02T07:59:55.102Z,14.99
2019-05-02T08:02:25.024Z,15.20
2019-05-02T08:04:55.223Z,15.23
2019-05-02T08:07:30.010Z,15.40
2019-05-02T08:09:56.133Z,15.39
2019-05-02T08:12:25.725Z,15.46
2019-05-02T08:14:55.331Z,15.54
2019-05-02T08:17:24.906Z,15.57
2019-05-02T08:19:54.379Z,15.89
2019-05-02T08:22:23.958Z,15.90
2019-05-02T08:24:53.534Z,16.07
2019-05-02T08:27:42.152Z,15.98
2019-05-02T08:30:21.255Z,16.32
2019-05-02T08:32:50.926Z,16.08
2019-05-02T08:35:20.765Z,16.17
2019-05-02T08:37:59.235Z,16.22
2019-05-02T08:40:28.872Z,16.25
2019-05-02T08:43:03.544Z,16.31
2019-05-02T08:45:33.113Z,16.35
2019-05-02T08:48:05.107Z,16.49
2019-05-02T08:50:34.975Z,16.52
2019-05-02T08:53:04.552Z,16.81
2019-05-02T08:55:34.196Z,16.80
2019-05-02T08:58:14.002Z,16.98
2019-05-02T09:00:39.487Z,17.44
2019-05-02T09:03:08.800Z,17.19
2019-05-02T09:05:45.571Z,17.55
2019-05-02T09:08:14.259Z,18.01
2019-05-02T09:10:42.224Z,18.00
2019-05-02T09:13:15.897Z,18.69
2019-05-02T09:15:49.774Z,17.86
2019-05-02T09:18:14.627Z,18.54
2019-05-02T09:20:47.050Z,18.54
2019-05-02T09:23:15.276Z,18.44
2019-05-02T09:25:44.801Z,18.83
2019-05-02T09:28:17.136Z,19.11
2019-05-02T09:30:46.857Z,18.80
2019-05-02T09:33:16.344Z,19.68
2019-05-02T09:35:45.834Z,19.83
2019-05-02T09:38:16.370Z,20.08
2019-05-02T09:40:47.169Z,20.37
2019-05-02T09:43:17.285Z,19.76
2019-05-02T09:45:46.874Z,19.75
2019-05-02T09:48:17.313Z,20.34
2019-05-02T09:50:47.497Z,19.53
2019-05-02T09:53:20.600Z,19.10
2019-05-02T09:55:50.267Z,18.88
2019-05-02T09:58:21.488Z,18.91
2019-05-02T10:01:03.012Z,19.32
2019-05-02T10:03:32.562Z,20.40
2019-05-02T10:06:03.089Z,21.07
2019-05-02T10:08:32.946Z,21.22
2019-05-02T10:11:02.994Z,20.64
2019-05-02T10:13:33.318Z,22.48
2019-05-02T10:16:02.852Z,21.98
2019-05-02T10:18:32.934Z,21.02
2019-05-02T10:21:03.154Z,21.35
2019-05-02T10:23:32.822Z,21.34
2019-05-02T10:26:04.167Z,22.81
2019-05-02T10:28:33.776Z,21.11
2019-05-02T10:31:03.315Z,21.83
2019-05-02T10:33:37.502Z,22.94
2019-05-02T10:36:04.632Z,22.39
2019-05-02T10:38:34.548Z,21.28
2019-05-02T10:41:04.919Z,21.30
2019-05-02T10:43:34.567Z,22.82
2019-05-02T10:46:14.442Z,23.27
2019-05-02T10:48:52.533Z,23.45
2019-05-02T10:51:34.380Z,22.05
2019-05-02T10:54:05.607Z,22.56
2019-05-02T10:56:35.585Z,23.81
2019-05-02T10:59:13.225Z,23.98
2019-05-02T11:01:59.312Z,24.29
2019-05-02T11:04:29.364Z,24.46
2019-05-02T11:06:59.118Z,24.25
2019-05-02T11:09:28.751Z,23.66
2019-05-02T11:11:58.868Z,22.82
2019-05-02T11:14:36.229Z,23.45
2019-05-02T11:17:17.668Z,23.54
2019-05-02T11:19:53.216Z,22.68
2019-05-02T11:22:22.841Z,22.75
2019-05-02T11:24:52.518Z,23.33
2019-05-02T11:27:22.226Z,22.97
2019-05-02T11:29:52.566Z,21.78
2019-05-02T11:32:22.446Z,20.84
2019-05-02T11:34:52.490Z,20.72
2019-05-02T11:37:22.617Z,21.07
2019-05-02T11:39:58.898Z,22.07
2019-05-02T11:42:27.253Z,20.92
2019-05-02T11:44:55.073Z,20.54
2019-05-02T11:47:26.568Z,20.31
2019-05-02T11:49:56.145Z,20.01
2019-05-02T11:52:27.506Z,19.82
2019-05-02T11:54:56.938Z,19.77
2019-05-02T11:57:28.645Z,19.96
2019-05-02T11:59:59.371Z,20.72
2019-05-02T12:02:58.338Z,20.40
2019-05-02T12:05:35.731Z,20.34
2019-05-02T12:08:08.040Z,19.97
2019-05-02T12:10:36.822Z,19.87
2019-05-02T12:13:13.836Z,19.95
2019-05-02T12:15:38.236Z,20.67
2019-05-02T12:18:08.216Z,20.54
2019-05-02T12:20:37.877Z,20.09
2019-05-02T12:23:09.206Z,19.93
2019-05-02T12:25:38.838Z,20.20
2019-05-02T12:28:08.655Z,20.21
2019-05-02T12:30:38.389Z,20.11
2019-05-02T12:33:08.102Z,20.04
2019-05-02T12:35:37.912Z,20.48
2019-05-02T12:38:12.216Z,20.53
2019-05-02T12:40:59.364Z,20.33
2019-05-02T12:43:29.126Z,20.22
2019-05-02T12:45:58.985Z,20.21
2019-05-02T12:48:28.627Z,20.56
2019-05-02T12:51:02.010Z,21.13
2019-05-02T12:53:32.632Z,20.99
2019-05-02T12:56:02.397Z,22.05
2019-05-02T12:58:32.617Z,21.10
2019-05-02T13:01:02.920Z,20.91
2019-05-02T13:04:03.874Z,20.68
2019-05-02T13:06:36.755Z,20.40
2019-05-02T13:09:08.427Z,20.30
2019-05-02T13:12:00.249Z,20.38
2019-05-02T13:14:32.029Z,20.44
2019-05-02T13:17:05.611Z,20.31
2019-05-02T13:19:40.652Z,20.43
2019-05-02T13:22:22.229Z,20.97
2019-05-02T13:24:57.816Z,20.74
2019-05-02T13:27:43.258Z,20.45
2019-05-02T13:30:03.479Z,20.33
2019-05-02T13:32:37.808Z,20.30
2019-05-02T13:35:24.587Z,20.41
2019-05-02T13:37:55.944Z,20.48
2019-05-02T13:40:35.714Z,20.74
2019-05-02T13:43:05.252Z,20.68
2019-05-02T13:45:53.913Z,21.01
2019-05-02T13:48:23.447Z,21.33
2019-05-02T13:50:53.129Z,22.00
2019-05-02T13:53:22.785Z,22.23
2019-05-02T13:55:58.795Z,21.90
2019-05-02T13:58:29.210Z,21.40
2019-05-02T14:00:59.840Z,22.62
2019-05-02T14:03:29.416Z,23.18
2019-05-02T14:05:58.888Z,22.74
2019-05-02T14:08:43.710Z,23.17
2019-05-02T14:11:31.743Z,23.31
2019-05-02T14:14:01.946Z,21.62
2019-05-02T14:16:34.615Z,21.27
2019-05-02T14:19:07.221Z,22.68
2019-05-02T14:21:36.838Z,24.64
2019-05-02T14:24:06.493Z,25.04
2019-05-02T14:26:35.949Z,24.85
2019-05-02T14:29:07.098Z,24.92
2019-05-02T14:31:36.979Z,25.24
2019-05-02T14:34:27.453Z,25.31
2019-05-02T14:36:59.307Z,23.50
2019-05-02T14:39:28.275Z,22.39
2019-05-02T14:41:58.025Z,21.99
2019-05-02T14:44:50.790Z,23.64
2019-05-02T14:46:58.955Z,24.97
2019-05-02T14:49:28.669Z,23.67
2019-05-02T14:52:02.916Z,22.20
2019-05-02T14:54:29.758Z,22.48
2019-05-02T14:57:09.357Z,22.08
2019-05-02T14:59:38.988Z,21.49
2019-05-02T15:02:13.148Z,21.34
2019-05-02T15:04:47.301Z,21.58
2019-05-02T15:07:17.589Z,21.86
2019-05-02T15:09:45.534Z,23.16
2019-05-02T15:12:18.846Z,22.50
2019-05-02T15:14:49.739Z,21.80
2019-05-02T15:17:18.063Z,21.89
2019-05-02T15:19:47.648Z,21.72
2019-05-02T15:22:17.229Z,21.85
2019-05-02T15:24:46.741Z,21.77
2019-05-02T15:27:17.711Z,21.88
2019-05-02T15:29:47.546Z,21.82
2019-05-02T15:32:46.202Z,21.93
2019-05-02T15:35:35.853Z,21.97
2019-05-02T15:38:06.805Z,21.74
2019-05-02T15:40:48.117Z,21.54
2019-05-02T15:43:09.585Z,21.57
2019-05-02T15:45:43.470Z,21.72
2019-05-02T15:48:14.608Z,21.80
2019-05-02T15:50:50.252Z,21.59
2019-05-02T15:53:19.283Z,21.40
2019-05-02T15:55:50.059Z,21.70
2019-05-02T15:58:26.078Z,21.59
2019-05-02T16:01:11.998Z,21.42
2019-05-02T16:03:45.892Z,21.30
2019-05-02T16:06:16.464Z,21.46
2019-05-02T16:08:48.651Z,21.27
2019-05-02T16:11:18.585Z,21.30
2019-05-02T16:13:54.736Z,21.27
2019-05-02T16:16:22.022Z,21.22
2019-05-02T16:18:52.542Z,21.25
2019-05-02T16:21:32.611Z,21.32
2019-05-02T16:24:22.889Z,21.41
2019-05-02T16:26:57.075Z,21.38
2019-05-02T16:29:28.701Z,21.33
2019-05-02T16:32:15.242Z,21.24
2019-05-02T16:35:12.205Z,21.24
2019-05-02T16:37:37.159Z,21.11
2019-05-02T16:40:07.584Z,20.99
2019-05-02T16:42:37.781Z,21.08
2019-05-02T16:45:09.438Z,21.25
2019-05-02T16:47:39.221Z,21.30
2019-05-02T16:50:09.312Z,21.37
2019-05-02T16:52:43.725Z,21.33
2019-05-02T16:55:13.678Z,21.20
2019-05-02T16:57:42.436Z,21.30
2019-05-02T17:00:14.158Z,21.31
2019-05-02T17:02:46.346Z,21.30
2019-05-02T17:05:15.395Z,21.31
2019-05-02T17:08:03.196Z,21.39
2019-05-02T17:10:56.882Z,21.38
2019-05-02T17:13:27.411Z,21.36
2019-05-02T17:15:57.872Z,21.27
2019-05-02T17:18:27.705Z,21.17
2019-05-02T17:20:57.307Z,21.12
2019-05-02T17:23:26.942Z,21.25
2019-05-02T17:25:56.511Z,21.19
2019-05-02T17:28:26.171Z,21.12
2019-05-02T17:30:55.834Z,21.08
2019-05-02T17:33:25.476Z,21.14
2019-05-02T17:35:55.101Z,21.08
2019-05-02T17:38:29.082Z,21.05
2019-05-02T17:40:59.219Z,21.00
2019-05-02T17:43:37.470Z,21.00
2019-05-02T17:46:07.490Z,21.05
2019-05-02T17:48:37.360Z,20.99
2019-05-02T17:51:22.744Z,20.95
2019-05-02T17:53:52.433Z,20.90
2019-05-02T17:56:23.182Z,20.81
2019-05-02T17:58:58.160Z,20.68
2019-05-02T18:01:35.365Z,20.62
2019-05-02T18:04:06.683Z,20.62
2019-05-02T18:06:36.792Z,20.49
2019-05-02T18:09:08.388Z,20.46
2019-05-02T18:11:38.060Z,20.47
2019-05-02T18:14:16.152Z,20.58
2019-05-02T18:16:41.844Z,20.45
2019-05-02T18:19:11.153Z,19.98
2019-05-02T19:46:42.236Z,18.21
2019-05-02T19:49:16.023Z,18.17
2019-05-02T19:51:43.431Z,18.15
2019-05-02T19:54:12.903Z,18.17
2019-05-02T19:56:47.130Z,18.22
2019-05-02T19:59:16.833Z,18.21
2019-05-02T20:01:45.053Z,18.20
2019-05-02T20:04:14.623Z,18.19
2019-05-02T20:06:44.284Z,18.14
2019-05-02T20:09:13.940Z,18.18
2019-05-02T20:11:43.536Z,18.19
2019-05-02T20:14:13.145Z,18.17
2019-05-02T20:16:48.313Z,18.15
2019-05-02T20:19:24.999Z,18.14
2019-05-02T20:22:08.219Z,18.11
2019-05-02T20:24:59.800Z,18.15
2019-05-02T20:27:27.970Z,18.12
2019-05-02T20:29:56.609Z,18.06
2019-05-02T20:32:26.286Z,18.07
2019-05-02T20:34:55.861Z,18.06
2019-05-02T20:37:25.638Z,17.98
2019-05-02T20:39:55.181Z,17.60
2019-05-02T20:42:24.734Z,17.18
2019-05-02T20:44:54.328Z,17.32
2019-05-02T20:47:24.854Z,17.22
2019-05-02T20:49:54.396Z,17.24
2019-05-02T20:52:24.104Z,17.00
2019-05-02T20:54:53.742Z,17.00
2019-05-02T20:57:23.462Z,16.89
2019-05-02T20:59:53.128Z,16.78
2019-05-02T21:02:22.786Z,16.59
2019-05-02T21:04:52.501Z,16.46
2019-05-02T21:07:33.083Z,16.35
2019-05-02T21:10:18.831Z,16.56
2019-05-02T21:12:48.486Z,16.49
2019-05-02T21:15:18.388Z,16.28
2019-05-02T21:17:47.903Z,16.10
2019-05-02T21:20:18.014Z,15.85
2019-05-02T21:22:47.691Z,16.16
2019-05-02T21:25:17.275Z,16.34
2019-05-02T21:27:46.964Z,15.90
2019-05-02T21:30:21.723Z,15.67
2019-05-02T21:32:52.051Z,15.78
2019-05-02T21:35:22.370Z,15.90
2019-05-02T21:37:52.447Z,15.88
2019-05-02T21:40:22.695Z,16.15
2019-05-02T21:42:53.340Z,16.22
2019-05-02T21:45:22.913Z,16.35
2019-05-02T21:47:52.823Z,16.26
2019-05-02T21:50:40.300Z,16.28
2019-05-02T21:53:32.740Z,15.84
2019-05-02T21:56:12.293Z,15.83
2019-05-02T21:59:02.842Z,15.55
2019-05-02T22:01:33.041Z,15.46
2019-05-02T22:04:02.557Z,15.54
2019-05-02T22:06:32.463Z,15.36
2019-05-02T22:09:03.036Z,15.20
2019-05-02T22:11:32.687Z,15.16
2019-05-02T22:14:02.498Z,15.05
2019-05-02T22:16:32.670Z,15.16
2019-05-02T22:19:02.940Z,15.13
2019-05-02T22:21:35.204Z,15.58
2019-05-02T22:24:11.031Z,15.44
2019-05-02T22:26:35.244Z,15.14
2019-05-02T22:29:04.849Z,15.20
2019-05-02T22:31:34.499Z,15.21
2019-05-02T22:34:04.176Z,15.51
2019-05-02T22:36:33.766Z,15.47
2019-05-02T22:39:16.202Z,15.46
2019-05-02T22:41:45.652Z,14.94
2019-05-02T22:44:15.176Z,15.09
2019-05-02T22:46:45.500Z,15.24
2019-05-02T22:49:15.361Z,15.11
2019-05-02T22:51:45.113Z,15.32
2019-05-02T22:54:26.681Z,14.94
2019-05-02T22:56:46.013Z,15.02
2019-05-02T22:59:15.586Z,14.85
2019-05-02T23:01:45.246Z,15.20
2019-05-02T23:04:14.730Z,14.68
2019-05-02T23:06:44.436Z,14.85
2019-05-02T23:09:14.019Z,15.18
2019-05-02T23:11:43.569Z,15.22
2019-05-02T23:14:13.209Z,14.67
2019-05-02T23:16:42.991Z,14.61
2019-05-02T23:19:12.634Z,15.20
2019-05-02T23:21:42.542Z,14.95
2019-05-02T23:24:23.760Z,14.84
2019-05-02T23:27:03.584Z,15.04
2019-05-02T23:29:33.141Z,14.93
2019-05-02T23:32:02.658Z,15.16
2019-05-02T23:34:32.446Z,15.16
2019-05-02T23:37:02.654Z,15.07
2019-05-02T23:39:32.373Z,14.90
2019-05-02T23:42:02.101Z,14.94
2019-05-02T23:44:31.678Z,14.49
2019-05-02T23:47:02.351Z,14.46
2019-05-02T23:49:32.483Z,14.64
2019-05-02T23:52:02.316Z,14.65
2019-05-02T23:54:32.432Z,14.87
2019-05-02T23:57:02.108Z,14.78
2019-05-02T23:59:31.895Z,14.82
